Create Tblcommutelog Verified Points Advance Search
| # | Trip ID | Id Commuter | Trip Date | Trip Num | Current Lat | Current Lng | Delta Distance | Current Time | Activity | Activity Confidence | Current Speed | |
|---|---|---|---|---|---|---|---|---|---|---|---|---|
| 71901 | 250710_787208_16514985_0836 | 787208 | (not set) | (not set) | 39.239553983333 | -76.702815983333 | 6.5531 | 2025-07-10 12:57:07.004 | in_vehicle | 100 | 14.904288894651 | |
| 71902 | 250710_781618_16456978_0817 | 781618 | (not set) | (not set) | 39.121030365734 | -76.92641049933 | 15.3202 | 2025-07-10 12:57:07.231 | in_vehicle | 100 | 13.880568991569 | |
| 71903 | 250710_686385_16484655_0824 | 686385 | (not set) | (not set) | 38.836076814236 | -77.045931861578 | 5.5787 | 2025-07-10 12:57:10.288 | in_vehicle | 100 | 7.3895589510671 | |
| 71904 | 250710_780825_6461772_0825 | 780825 | (not set) | (not set) | 38.884205775074 | -77.062989562007 | 13.048 | 2025-07-10 12:57:11.219 | in_vehicle | 100 | 2.950459109319 | |
| 71905 | 250710_763436_16500126_0829 | 763436 | (not set) | (not set) | 38.9335777 | -76.9906006 | 7.4516 | 2025-07-10 12:57:12.154 | walking | 100 | 3.4109095460763 | |
| 71906 | 250710_753800_6439769_0820 | 753800 | (not set) | (not set) | 38.92659127369 | -77.012085759643 | 5.4168 | 2025-07-10 12:57:12.302 | on_bicycle | 100 | 2.0295582358043 | |
| 71907 | 250710_785824_16514313_0835 | 785824 | (not set) | (not set) | 38.963174310047 | -76.970788162337 | 4.5661 | 2025-07-10 12:57:13.346 | on_foot | 100 | 1.7970978211307 | |
| 71908 | 250710_698742_16447752_0831 | 698742 | (not set) | (not set) | 38.816281678249 | -77.052633448576 | 9.8287 | 2025-07-10 12:57:13.386 | in_vehicle | 100 | 8.994429890833 | |
| 71909 | 250710_782325_6461772_0834 | 782325 | (not set) | (not set) | 38.898369176512 | -77.041267669673 | 2.5271 | 2025-07-10 12:57:15.209 | on_foot | 100 | 1.0639534363908 | |
| 71910 | 250710_787111_16514940_0853 | 787111 | (not set) | (not set) | 39.2740242 | -76.5569511 | 0.5553 | 2025-07-10 12:57:15.232 | still | 100 | -0.44703925898772 | |
| 71911 | 250710_731669_16507744_0657 | 731669 | (not set) | (not set) | 38.895146755827 | -77.070512460355 | 40.9731 | 2025-07-10 12:57:17.22 | in_vehicle | 100 | 0.71526281438036 | |
| 71912 | 250710_781618_16456978_0817 | 781618 | (not set) | (not set) | 39.117858592496 | -76.927359461696 | 15.5448 | 2025-07-10 12:57:19.241 | in_vehicle | 100 | 13.496115228839 | |
| 71913 | 250710_787208_16514985_0836 | 787208 | (not set) | (not set) | 39.2379308 | -76.7070587 | 6.8067 | 2025-07-10 12:57:20.772 | in_vehicle | 100 | 10.970343415559 | |
| 71914 | 250710_780826_6461772_0836 | 780826 | (not set) | (not set) | 38.884110772668 | -77.06310382984 | 2.0862 | 2025-07-10 12:57:22.106 | in_vehicle | 100 | -0.44703925898772 | |
| 71915 | 250710_786124_6441454_0856 | 786124 | (not set) | (not set) | 39.250549380332 | -77.300904563964 | 0.693 | 2025-07-10 12:57:22.286 | in_vehicle | 100 | 7.2196840326517 | |
| 71916 | 250710_686385_16484655_0824 | 686385 | (not set) | (not set) | 38.834280493733 | -77.045714271719 | 5.7033 | 2025-07-10 12:57:23.954 | in_vehicle | 100 | 6.6072402478386 | |
| 71917 | 250710_770910_16486049_0756 | 770910 | (not set) | (not set) | 38.80702297884 | -77.076101458323 | 10.0635 | 2025-07-10 12:57:25.275 | in_vehicle | 100 | 3.2455050202509 | |
| 71918 | 250710_698742_16447752_0831 | 698742 | (not set) | (not set) | 38.81836962295 | -77.051190754856 | 9.9924 | 2025-07-10 12:57:25.399 | in_vehicle | 100 | 10.219317460459 | |
| 71919 | 250710_786861_16514823_0845 | 786861 | (not set) | (not set) | 38.898156501658 | -77.028881316248 | 1.6621 | 2025-07-10 12:57:28.185 | on_foot | 100 | -0.44703925898772 | |
| 71920 | 250710_784617_16489083_0841 | 784617 | (not set) | (not set) | 38.766524559361 | -77.167398283894 | 5.7952 | 2025-07-10 12:58:16.253 | in_vehicle | 100 | 3.4645542571549 |